sensor_id;sensor_type;location;lat;lon;timestamp;P1;durP1;ratioP1;P2;durP2;ratioP2
11541;SDS011;5827;49.482;7.716;2023-04-24T00:01:16;2.73;;;1.60;;
11541;SDS011;5827;49.482;7.716;2023-04-24T00:03:19;3.57;;;1.53;;
11541;SDS011;5827;49.482;7.716;2023-04-24T00:05:22;3.47;;;1.70;;
11541;SDS011;5827;49.482;7.716;2023-04-24T00:07:23;1.63;;;1.30;;
11541;SDS011;5827;49.482;7.716;2023-04-24T00:09:25;3.17;;;1.53;;
11541;SDS011;5827;49.482;7.716;2023-04-24T00:11:28;1.53;;;1.30;;
11541;SDS011;5827;49.482;7.716;2023-04-24T00:13:30;3.43;;;1.40;;
11541;SDS011;5827;49.482;7.716;2023-04-24T00:15:32;3.43;;;1.83;;
11541;SDS011;5827;49.482;7.716;2023-04-24T00:17:33;2.17;;;1.40;;
11541;SDS011;5827;49.482;7.716;2023-04-24T00:19:35;3.13;;;1.40;;
11541;SDS011;5827;49.482;7.716;2023-04-24T00:21:36;3.63;;;1.60;;
11541;SDS011;5827;49.482;7.716;2023-04-24T00:23:38;2.93;;;1.40;;
11541;SDS011;5827;49.482;7.716;2023-04-24T00:25:39;2.50;;;1.40;;
11541;SDS011;5827;49.482;7.716;2023-04-24T00:27:42;1.77;;;1.47;;
11541;SDS011;5827;49.482;7.716;2023-04-24T00:29:44;2.90;;;1.23;;
11541;SDS011;5827;49.482;7.716;2023-04-24T00:31:45;3.23;;;1.63;;
11541;SDS011;5827;49.482;7.716;2023-04-24T00:33:47;2.50;;;1.70;;
11541;SDS011;5827;49.482;7.716;2023-04-24T00:35:48;1.47;;;1.20;;
11541;SDS011;5827;49.482;7.716;2023-04-24T00:37:50;2.93;;;1.40;;
11541;SDS011;5827;49.482;7.716;2023-04-24T00:39:51;2.03;;;1.10;;
11541;SDS011;5827;49.482;7.716;2023-04-24T00:41:53;3.60;;;1.60;;
11541;SDS011;5827;49.482;7.716;2023-04-24T00:43:56;4.37;;;1.33;;
11541;SDS011;5827;49.482;7.716;2023-04-24T00:45:58;2.30;;;1.33;;
11541;SDS011;5827;49.482;7.716;2023-04-24T00:48:01;2.63;;;1.30;;
11541;SDS011;5827;49.482;7.716;2023-04-24T00:50:03;1.53;;;1.27;;
11541;SDS011;5827;49.482;7.716;2023-04-24T00:52:07;3.40;;;1.50;;
11541;SDS011;5827;49.482;7.716;2023-04-24T00:54:08;3.47;;;1.53;;
11541;SDS011;5827;49.482;7.716;2023-04-24T00:56:10;2.97;;;1.70;;
11541;SDS011;5827;49.482;7.716;2023-04-24T00:58:12;2.43;;;1.40;;
11541;SDS011;5827;49.482;7.716;2023-04-24T01:00:16;1.53;;;1.20;;
11541;SDS011;5827;49.482;7.716;2023-04-24T01:02:18;3.20;;;1.33;;
11541;SDS011;5827;49.482;7.716;2023-04-24T01:04:22;1.73;;;1.40;;
11541;SDS011;5827;49.482;7.716;2023-04-24T01:06:23;2.63;;;1.20;;
11541;SDS011;5827;49.482;7.716;2023-04-24T01:08:28;3.37;;;1.47;;
11541;SDS011;5827;49.482;7.716;2023-04-24T01:10:30;2.27;;;1.30;;
11541;SDS011;5827;49.482;7.716;2023-04-24T01:12:34;1.53;;;1.43;;
11541;SDS011;5827;49.482;7.716;2023-04-24T01:14:36;3.53;;;1.30;;
11541;SDS011;5827;49.482;7.716;2023-04-24T01:16:39;1.53;;;1.20;;
11541;SDS011;5827;49.482;7.716;2023-04-24T01:18:41;1.40;;;1.20;;
11541;SDS011;5827;49.482;7.716;2023-04-24T01:20:43;2.20;;;1.50;;
11541;SDS011;5827;49.482;7.716;2023-04-24T01:22:48;2.73;;;1.57;;
11541;SDS011;5827;49.482;7.716;2023-04-24T01:24:49;1.73;;;1.40;;
11541;SDS011;5827;49.482;7.716;2023-04-24T01:26:51;2.10;;;1.30;;
11541;SDS011;5827;49.482;7.716;2023-04-24T01:28:52;1.27;;;1.17;;
11541;SDS011;5827;49.482;7.716;2023-04-24T01:30:54;2.50;;;1.40;;
11541;SDS011;5827;49.482;7.716;2023-04-24T01:32:56;4.10;;;1.40;;
11541;SDS011;5827;49.482;7.716;2023-04-24T01:34:59;1.80;;;1.20;;
11541;SDS011;5827;49.482;7.716;2023-04-24T01:37:01;2.67;;;1.30;;
11541;SDS011;5827;49.482;7.716;2023-04-24T01:39:04;1.17;;;1.07;;
11541;SDS011;5827;49.482;7.716;2023-04-24T01:41:06;1.30;;;1.20;;
11541;SDS011;5827;49.482;7.716;2023-04-24T01:43:08;2.10;;;1.40;;
11541;SDS011;5827;49.482;7.716;2023-04-24T01:45:10;1.53;;;1.30;;
11541;SDS011;5827;49.482;7.716;2023-04-24T01:47:12;2.87;;;1.27;;
11541;SDS011;5827;49.482;7.716;2023-04-24T01:49:14;2.10;;;1.23;;
11541;SDS011;5827;49.482;7.716;2023-04-24T01:51:16;1.37;;;1.27;;
11541;SDS011;5827;49.482;7.716;2023-04-24T01:53:18;1.43;;;1.20;;
11541;SDS011;5827;49.482;7.716;2023-04-24T01:55:21;1.10;;;1.10;;
11541;SDS011;5827;49.482;7.716;2023-04-24T01:57:23;2.07;;;1.50;;
11541;SDS011;5827;49.482;7.716;2023-04-24T01:59:24;1.37;;;1.20;;
11541;SDS011;5827;49.482;7.716;2023-04-24T02:01:31;2.30;;;1.47;;
11541;SDS011;5827;49.482;7.716;2023-04-24T02:03:34;1.77;;;1.30;;
11541;SDS011;5827;49.482;7.716;2023-04-24T02:05:36;2.37;;;1.93;;
11541;SDS011;5827;49.482;7.716;2023-04-24T02:07:37;1.50;;;1.40;;
11541;SDS011;5827;49.482;7.716;2023-04-24T02:09:39;2.17;;;1.70;;
11541;SDS011;5827;49.482;7.716;2023-04-24T02:11:42;2.00;;;1.80;;
11541;SDS011;5827;49.482;7.716;2023-04-24T02:13:44;2.30;;;1.67;;
11541;SDS011;5827;49.482;7.716;2023-04-24T02:15:45;2.20;;;1.67;;
11541;SDS011;5827;49.482;7.716;2023-04-24T02:17:47;3.50;;;1.80;;
11541;SDS011;5827;49.482;7.716;2023-04-24T02:19:48;2.63;;;1.83;;
11541;SDS011;5827;49.482;7.716;2023-04-24T02:21:50;2.10;;;1.90;;
11541;SDS011;5827;49.482;7.716;2023-04-24T02:23:51;2.17;;;2.03;;
11541;SDS011;5827;49.482;7.716;2023-04-24T02:25:53;4.67;;;2.40;;
11541;SDS011;5827;49.482;7.716;2023-04-24T02:27:57;4.17;;;2.20;;
11541;SDS011;5827;49.482;7.716;2023-04-24T02:29:58;3.60;;;2.10;;
11541;SDS011;5827;49.482;7.716;2023-04-24T02:32:00;2.70;;;2.20;;
11541;SDS011;5827;49.482;7.716;2023-04-24T02:34:02;2.30;;;2.10;;
11541;SDS011;5827;49.482;7.716;2023-04-24T02:36:03;3.67;;;2.20;;
11541;SDS011;5827;49.482;7.716;2023-04-24T02:38:05;3.03;;;2.10;;
11541;SDS011;5827;49.482;7.716;2023-04-24T02:40:07;2.40;;;2.20;;
11541;SDS011;5827;49.482;7.716;2023-04-24T02:42:09;2.40;;;2.20;;
11541;SDS011;5827;49.482;7.716;2023-04-24T02:44:12;2.90;;;2.40;;
11541;SDS011;5827;49.482;7.716;2023-04-24T02:46:14;2.83;;;2.53;;
11541;SDS011;5827;49.482;7.716;2023-04-24T02:48:15;2.50;;;2.30;;
11541;SDS011;5827;49.482;7.716;2023-04-24T02:50:17;3.10;;;2.80;;
11541;SDS011;5827;49.482;7.716;2023-04-24T02:52:18;2.97;;;2.67;;
11541;SDS011;5827;49.482;7.716;2023-04-24T02:54:20;2.67;;;2.47;;
11541;SDS011;5827;49.482;7.716;2023-04-24T02:56:21;4.40;;;2.70;;
11541;SDS011;5827;49.482;7.716;2023-04-24T02:58:23;3.20;;;2.40;;
11541;SDS011;5827;49.482;7.716;2023-04-24T03:00:26;2.77;;;2.53;;
11541;SDS011;5827;49.482;7.716;2023-04-24T03:02:27;3.03;;;2.73;;
11541;SDS011;5827;49.482;7.716;2023-04-24T03:04:29;3.20;;;2.47;;
11541;SDS011;5827;49.482;7.716;2023-04-24T03:06:30;2.87;;;2.67;;
11541;SDS011;5827;49.482;7.716;2023-04-24T03:08:34;2.90;;;2.70;;
11541;SDS011;5827;49.482;7.716;2023-04-24T03:10:35;2.57;;;2.37;;
11541;SDS011;5827;49.482;7.716;2023-04-24T03:12:37;3.03;;;2.60;;
11541;SDS011;5827;49.482;7.716;2023-04-24T03:14:38;2.90;;;2.60;;
11541;SDS011;5827;49.482;7.716;2023-04-24T03:16:41;3.13;;;2.53;;
11541;SDS011;5827;49.482;7.716;2023-04-24T03:18:42;3.00;;;2.70;;
11541;SDS011;5827;49.482;7.716;2023-04-24T03:20:45;3.00;;;2.70;;
11541;SDS011;5827;49.482;7.716;2023-04-24T03:22:46;3.43;;;2.57;;
11541;SDS011;5827;49.482;7.716;2023-04-24T03:24:48;3.23;;;2.73;;
11541;SDS011;5827;49.482;7.716;2023-04-24T03:26:49;4.23;;;2.77;;
11541;SDS011;5827;49.482;7.716;2023-04-24T03:28:51;3.70;;;2.60;;
11541;SDS011;5827;49.482;7.716;2023-04-24T03:30:52;3.00;;;2.80;;
11541;SDS011;5827;49.482;7.716;2023-04-24T03:32:55;3.60;;;3.10;;
11541;SDS011;5827;49.482;7.716;2023-04-24T03:34:56;3.30;;;3.00;;
11541;SDS011;5827;49.482;7.716;2023-04-24T03:36:58;3.77;;;3.10;;
11541;SDS011;5827;49.482;7.716;2023-04-24T03:38:59;3.33;;;2.83;;
11541;SDS011;5827;49.482;7.716;2023-04-24T03:41:01;3.07;;;2.80;;
11541;SDS011;5827;49.482;7.716;2023-04-24T03:43:02;3.70;;;3.20;;
11541;SDS011;5827;49.482;7.716;2023-04-24T03:45:04;4.53;;;2.83;;
11541;SDS011;5827;49.482;7.716;2023-04-24T03:47:06;4.77;;;2.73;;
11541;SDS011;5827;49.482;7.716;2023-04-24T03:49:09;3.17;;;2.80;;
11541;SDS011;5827;49.482;7.716;2023-04-24T03:51:11;3.50;;;3.20;;
11541;SDS011;5827;49.482;7.716;2023-04-24T03:53:12;3.10;;;2.80;;
11541;SDS011;5827;49.482;7.716;2023-04-24T03:55:14;3.00;;;2.70;;
11541;SDS011;5827;49.482;7.716;2023-04-24T03:57:15;4.40;;;3.33;;
11541;SDS011;5827;49.482;7.716;2023-04-24T03:59:17;3.93;;;3.13;;
11541;SDS011;5827;49.482;7.716;2023-04-24T04:01:18;3.40;;;3.10;;
11541;SDS011;5827;49.482;7.716;2023-04-24T04:03:20;4.47;;;3.57;;
11541;SDS011;5827;49.482;7.716;2023-04-24T04:05:23;5.40;;;3.80;;
11541;SDS011;5827;49.482;7.716;2023-04-24T04:07:25;4.17;;;3.77;;
11541;SDS011;5827;49.482;7.716;2023-04-24T04:09:26;4.40;;;4.00;;
11541;SDS011;5827;49.482;7.716;2023-04-24T04:11:28;4.27;;;3.87;;
11541;SDS011;5827;49.482;7.716;2023-04-24T04:13:30;5.90;;;4.13;;
11541;SDS011;5827;49.482;7.716;2023-04-24T04:15:31;5.60;;;4.30;;
11541;SDS011;5827;49.482;7.716;2023-04-24T04:17:33;4.30;;;3.90;;
11541;SDS011;5827;49.482;7.716;2023-04-24T04:19:34;4.90;;;4.40;;
11541;SDS011;5827;49.482;7.716;2023-04-24T04:21:37;6.00;;;4.43;;
11541;SDS011;5827;49.482;7.716;2023-04-24T04:23:39;6.83;;;4.40;;
11541;SDS011;5827;49.482;7.716;2023-04-24T04:25:41;5.20;;;3.80;;
11541;SDS011;5827;49.482;7.716;2023-04-24T04:27:43;9.63;;;5.10;;
11541;SDS011;5827;49.482;7.716;2023-04-24T04:29:44;6.60;;;4.57;;
11541;SDS011;5827;49.482;7.716;2023-04-24T04:31:46;5.23;;;4.73;;
11541;SDS011;5827;49.482;7.716;2023-04-24T04:33:48;5.53;;;4.80;;
11541;SDS011;5827;49.482;7.716;2023-04-24T04:35:50;6.73;;;4.90;;
11541;SDS011;5827;49.482;7.716;2023-04-24T04:37:53;5.30;;;4.80;;
11541;SDS011;5827;49.482;7.716;2023-04-24T04:39:56;6.43;;;4.73;;
11541;SDS011;5827;49.482;7.716;2023-04-24T04:41:58;6.03;;;5.03;;
11541;SDS011;5827;49.482;7.716;2023-04-24T04:44:00;5.13;;;4.63;;
11541;SDS011;5827;49.482;7.716;2023-04-24T04:46:04;5.83;;;5.10;;
11541;SDS011;5827;49.482;7.716;2023-04-24T04:48:06;5.50;;;4.90;;
11541;SDS011;5827;49.482;7.716;2023-04-24T04:50:09;5.60;;;5.00;;
11541;SDS011;5827;49.482;7.716;2023-04-24T04:52:11;6.63;;;4.87;;
11541;SDS011;5827;49.482;7.716;2023-04-24T04:54:14;5.83;;;4.57;;
11541;SDS011;5827;49.482;7.716;2023-04-24T04:56:15;8.50;;;5.50;;
11541;SDS011;5827;49.482;7.716;2023-04-24T04:58:17;6.27;;;4.67;;
11541;SDS011;5827;49.482;7.716;2023-04-24T05:00:19;6.20;;;4.93;;
11541;SDS011;5827;49.482;7.716;2023-04-24T05:02:21;6.07;;;5.17;;
11541;SDS011;5827;49.482;7.716;2023-04-24T05:04:22;6.80;;;5.30;;
11541;SDS011;5827;49.482;7.716;2023-04-24T05:06:24;7.27;;;5.07;;
11541;SDS011;5827;49.482;7.716;2023-04-24T05:08:26;5.17;;;4.67;;
11541;SDS011;5827;49.482;7.716;2023-04-24T05:10:28;6.77;;;5.47;;
11541;SDS011;5827;49.482;7.716;2023-04-24T05:12:30;5.87;;;5.30;;
11541;SDS011;5827;49.482;7.716;2023-04-24T05:14:32;6.80;;;5.13;;
11541;SDS011;5827;49.482;7.716;2023-04-24T05:16:33;7.47;;;5.23;;
11541;SDS011;5827;49.482;7.716;2023-04-24T05:18:35;7.13;;;6.13;;
11541;SDS011;5827;49.482;7.716;2023-04-24T05:20:36;7.03;;;5.80;;
11541;SDS011;5827;49.482;7.716;2023-04-24T05:22:37;7.17;;;5.53;;
11541;SDS011;5827;49.482;7.716;2023-04-24T05:24:39;8.20;;;5.50;;
11541;SDS011;5827;49.482;7.716;2023-04-24T05:26:42;8.47;;;6.17;;
11541;SDS011;5827;49.482;7.716;2023-04-24T05:28:43;6.57;;;5.90;;
11541;SDS011;5827;49.482;7.716;2023-04-24T05:30:45;8.47;;;5.80;;
11541;SDS011;5827;49.482;7.716;2023-04-24T05:32:46;7.67;;;5.73;;
11541;SDS011;5827;49.482;7.716;2023-04-24T05:34:48;6.33;;;5.73;;
11541;SDS011;5827;49.482;7.716;2023-04-24T05:36:49;9.83;;;6.33;;
11541;SDS011;5827;49.482;7.716;2023-04-24T05:38:51;7.77;;;5.63;;
11541;SDS011;5827;49.482;7.716;2023-04-24T05:40:53;9.73;;;5.83;;
11541;SDS011;5827;49.482;7.716;2023-04-24T05:42:56;6.10;;;5.47;;
11541;SDS011;5827;49.482;7.716;2023-04-24T05:44:57;7.13;;;5.70;;
11541;SDS011;5827;49.482;7.716;2023-04-24T05:46:59;5.97;;;5.37;;
11541;SDS011;5827;49.482;7.716;2023-04-24T05:49:00;8.30;;;5.67;;
11541;SDS011;5827;49.482;7.716;2023-04-24T05:51:03;5.10;;;4.47;;
11541;SDS011;5827;49.482;7.716;2023-04-24T05:53:04;6.10;;;5.13;;
11541;SDS011;5827;49.482;7.716;2023-04-24T05:55:07;6.30;;;5.23;;
11541;SDS011;5827;49.482;7.716;2023-04-24T05:57:09;6.77;;;5.37;;
11541;SDS011;5827;49.482;7.716;2023-04-24T05:59:11;5.43;;;4.93;;
11541;SDS011;5827;49.482;7.716;2023-04-24T06:01:13;6.10;;;5.50;;
11541;SDS011;5827;49.482;7.716;2023-04-24T06:03:15;7.80;;;5.50;;
11541;SDS011;5827;49.482;7.716;2023-04-24T06:05:17;5.87;;;4.87;;
11541;SDS011;5827;49.482;7.716;2023-04-24T06:07:18;7.27;;;6.53;;
11541;SDS011;5827;49.482;7.716;2023-04-24T06:09:20;5.90;;;5.27;;
11541;SDS011;5827;49.482;7.716;2023-04-24T06:11:21;6.97;;;5.07;;
11541;SDS011;5827;49.482;7.716;2023-04-24T06:13:23;6.00;;;4.70;;
11541;SDS011;5827;49.482;7.716;2023-04-24T06:15:26;6.70;;;5.40;;
11541;SDS011;5827;49.482;7.716;2023-04-24T06:17:29;7.53;;;5.10;;
11541;SDS011;5827;49.482;7.716;2023-04-24T06:19:31;5.00;;;4.17;;
11541;SDS011;5827;49.482;7.716;2023-04-24T06:21:33;5.03;;;3.80;;
11541;SDS011;5827;49.482;7.716;2023-04-24T06:23:34;5.13;;;3.73;;
11541;SDS011;5827;49.482;7.716;2023-04-24T06:25:36;4.37;;;3.70;;
11541;SDS011;5827;49.482;7.716;2023-04-24T06:27:37;4.50;;;3.40;;
11541;SDS011;5827;49.482;7.716;2023-04-24T06:29:39;4.47;;;4.07;;
11541;SDS011;5827;49.482;7.716;2023-04-24T06:31:42;4.00;;;3.60;;
11541;SDS011;5827;49.482;7.716;2023-04-24T06:33:43;7.13;;;3.63;;
11541;SDS011;5827;49.482;7.716;2023-04-24T06:35:45;3.50;;;3.20;;
11541;SDS011;5827;49.482;7.716;2023-04-24T06:37:46;3.53;;;3.23;;
11541;SDS011;5827;49.482;7.716;2023-04-24T06:39:48;3.97;;;3.57;;
11541;SDS011;5827;49.482;7.716;2023-04-24T06:41:49;3.70;;;3.40;;
11541;SDS011;5827;49.482;7.716;2023-04-24T06:43:51;3.63;;;3.33;;
11541;SDS011;5827;49.482;7.716;2023-04-24T06:45:53;3.77;;;3.43;;
11541;SDS011;5827;49.482;7.716;2023-04-24T06:47:56;5.03;;;3.53;;
11541;SDS011;5827;49.482;7.716;2023-04-24T06:49:58;4.43;;;3.80;;
11541;SDS011;5827;49.482;7.716;2023-04-24T06:52:00;3.70;;;3.40;;
11541;SDS011;5827;49.482;7.716;2023-04-24T06:54:01;3.93;;;3.50;;
11541;SDS011;5827;49.482;7.716;2023-04-24T06:56:03;4.47;;;4.07;;
11541;SDS011;5827;49.482;7.716;2023-04-24T06:58:05;4.20;;;3.80;;
11541;SDS011;5827;49.482;7.716;2023-04-24T07:00:07;5.57;;;3.50;;
11541;SDS011;5827;49.482;7.716;2023-04-24T07:02:09;3.60;;;2.90;;
11541;SDS011;5827;49.482;7.716;2023-04-24T07:04:12;3.00;;;2.80;;
11541;SDS011;5827;49.482;7.716;2023-04-24T07:06:14;2.87;;;2.60;;
11541;SDS011;5827;49.482;7.716;2023-04-24T07:08:16;3.00;;;2.80;;
11541;SDS011;5827;49.482;7.716;2023-04-24T07:10:18;3.03;;;2.47;;
11541;SDS011;5827;49.482;7.716;2023-04-24T07:12:20;2.50;;;2.30;;
11541;SDS011;5827;49.482;7.716;2023-04-24T07:14:21;3.30;;;2.57;;
11541;SDS011;5827;49.482;7.716;2023-04-24T07:16:23;2.40;;;2.20;;
11541;SDS011;5827;49.482;7.716;2023-04-24T07:18:25;3.20;;;2.63;;
11541;SDS011;5827;49.482;7.716;2023-04-24T07:20:28;3.20;;;2.90;;
11541;SDS011;5827;49.482;7.716;2023-04-24T07:22:30;3.00;;;2.80;;
11541;SDS011;5827;49.482;7.716;2023-04-24T07:24:31;2.87;;;2.57;;
11541;SDS011;5827;49.482;7.716;2023-04-24T07:26:33;2.80;;;2.60;;
11541;SDS011;5827;49.482;7.716;2023-04-24T07:28:34;2.87;;;2.60;;
11541;SDS011;5827;49.482;7.716;2023-04-24T07:30:36;5.20;;;2.80;;
11541;SDS011;5827;49.482;7.716;2023-04-24T07:32:37;2.97;;;2.50;;
11541;SDS011;5827;49.482;7.716;2023-04-24T07:34:39;2.97;;;2.77;;
11541;SDS011;5827;49.482;7.716;2023-04-24T07:36:42;3.40;;;2.77;;
11541;SDS011;5827;49.482;7.716;2023-04-24T07:38:43;3.87;;;3.13;;
11541;SDS011;5827;49.482;7.716;2023-04-24T07:40:45;3.33;;;3.03;;
11541;SDS011;5827;49.482;7.716;2023-04-24T07:42:47;2.93;;;2.73;;
11541;SDS011;5827;49.482;7.716;2023-04-24T07:44:49;4.83;;;2.80;;
11541;SDS011;5827;49.482;7.716;2023-04-24T07:46:51;3.40;;;2.80;;
11541;SDS011;5827;49.482;7.716;2023-04-24T07:48:52;3.77;;;3.37;;
11541;SDS011;5827;49.482;7.716;2023-04-24T07:50:54;3.10;;;2.83;;
11541;SDS011;5827;49.482;7.716;2023-04-24T07:52:57;3.23;;;2.93;;
11541;SDS011;5827;49.482;7.716;2023-04-24T07:54:58;4.00;;;3.30;;
11541;SDS011;5827;49.482;7.716;2023-04-24T07:57:00;3.80;;;3.27;;
11541;SDS011;5827;49.482;7.716;2023-04-24T07:59:02;4.57;;;3.50;;
11541;SDS011;5827;49.482;7.716;2023-04-24T08:01:04;4.53;;;3.50;;
11541;SDS011;5827;49.482;7.716;2023-04-24T08:03:05;4.30;;;3.50;;
11541;SDS011;5827;49.482;7.716;2023-04-24T08:05:12;5.20;;;3.63;;
11541;SDS011;5827;49.482;7.716;2023-04-24T08:07:14;5.50;;;3.70;;
11541;SDS011;5827;49.482;7.716;2023-04-24T08:09:17;5.80;;;4.03;;
11541;SDS011;5827;49.482;7.716;2023-04-24T08:11:19;3.70;;;3.23;;
11541;SDS011;5827;49.482;7.716;2023-04-24T08:13:20;3.77;;;3.37;;
11541;SDS011;5827;49.482;7.716;2023-04-24T08:15:21;4.07;;;2.90;;
11541;SDS011;5827;49.482;7.716;2023-04-24T08:17:24;3.27;;;2.97;;
11541;SDS011;5827;49.482;7.716;2023-04-24T08:19:25;5.93;;;3.97;;
11541;SDS011;5827;49.482;7.716;2023-04-24T08:21:27;3.57;;;3.27;;
11541;SDS011;5827;49.482;7.716;2023-04-24T08:23:28;3.70;;;3.17;;
11541;SDS011;5827;49.482;7.716;2023-04-24T08:25:31;4.33;;;3.77;;
11541;SDS011;5827;49.482;7.716;2023-04-24T08:27:35;4.67;;;3.60;;
11541;SDS011;5827;49.482;7.716;2023-04-24T08:29:38;3.70;;;3.40;;
11541;SDS011;5827;49.482;7.716;2023-04-24T08:31:40;3.77;;;3.43;;
11541;SDS011;5827;49.482;7.716;2023-04-24T08:33:41;3.63;;;3.33;;
11541;SDS011;5827;49.482;7.716;2023-04-24T08:35:44;3.67;;;3.37;;
11541;SDS011;5827;49.482;7.716;2023-04-24T08:37:46;4.37;;;3.00;;
11541;SDS011;5827;49.482;7.716;2023-04-24T08:39:47;4.40;;;3.17;;
11541;SDS011;5827;49.482;7.716;2023-04-24T08:41:51;4.67;;;3.37;;
11541;SDS011;5827;49.482;7.716;2023-04-24T08:43:53;5.13;;;3.80;;
11541;SDS011;5827;49.482;7.716;2023-04-24T08:45:58;4.27;;;3.60;;
11541;SDS011;5827;49.482;7.716;2023-04-24T08:48:00;3.33;;;3.03;;
11541;SDS011;5827;49.482;7.716;2023-04-24T08:50:03;4.40;;;3.83;;
11541;SDS011;5827;49.482;7.716;2023-04-24T08:52:05;4.80;;;3.50;;
11541;SDS011;5827;49.482;7.716;2023-04-24T08:54:07;5.67;;;3.87;;
11541;SDS011;5827;49.482;7.716;2023-04-24T08:56:09;5.67;;;3.33;;
11541;SDS011;5827;49.482;7.716;2023-04-24T08:58:13;4.77;;;3.60;;
11541;SDS011;5827;49.482;7.716;2023-04-24T09:00:16;4.73;;;3.50;;
11541;SDS011;5827;49.482;7.716;2023-04-24T09:02:18;6.20;;;4.20;;
11541;SDS011;5827;49.482;7.716;2023-04-24T09:04:20;5.00;;;3.60;;
11541;SDS011;5827;49.482;7.716;2023-04-24T09:06:26;3.50;;;3.20;;
11541;SDS011;5827;49.482;7.716;2023-04-24T09:08:28;5.53;;;3.67;;
11541;SDS011;5827;49.482;7.716;2023-04-24T09:10:30;3.60;;;3.30;;
11541;SDS011;5827;49.482;7.716;2023-04-24T09:12:32;4.40;;;3.50;;
11541;SDS011;5827;49.482;7.716;2023-04-24T09:14:36;5.33;;;3.80;;
11541;SDS011;5827;49.482;7.716;2023-04-24T09:16:42;4.30;;;3.20;;
11541;SDS011;5827;49.482;7.716;2023-04-24T09:18:43;4.47;;;3.63;;
11541;SDS011;5827;49.482;7.716;2023-04-24T09:20:58;3.70;;;3.40;;
11541;SDS011;5827;49.482;7.716;2023-04-24T09:23:01;3.63;;;3.33;;
11541;SDS011;5827;49.482;7.716;2023-04-24T09:25:03;4.40;;;3.20;;
11541;SDS011;5827;49.482;7.716;2023-04-24T09:27:06;4.43;;;3.40;;
11541;SDS011;5827;49.482;7.716;2023-04-24T09:29:08;4.77;;;3.40;;
11541;SDS011;5827;49.482;7.716;2023-04-24T09:31:18;4.63;;;3.30;;
11541;SDS011;5827;49.482;7.716;2023-04-24T09:33:21;3.50;;;3.10;;
11541;SDS011;5827;49.482;7.716;2023-04-24T09:35:23;3.67;;;3.00;;
11541;SDS011;5827;49.482;7.716;2023-04-24T09:37:27;4.17;;;3.50;;
11541;SDS011;5827;49.482;7.716;2023-04-24T09:39:30;6.10;;;3.43;;
11541;SDS011;5827;49.482;7.716;2023-04-24T09:41:31;3.83;;;3.10;;
11541;SDS011;5827;49.482;7.716;2023-04-24T09:43:34;4.57;;;3.70;;
11541;SDS011;5827;49.482;7.716;2023-04-24T09:45:37;3.90;;;3.50;;
11541;SDS011;5827;49.482;7.716;2023-04-24T09:47:41;4.23;;;3.53;;
11541;SDS011;5827;49.482;7.716;2023-04-24T09:49:42;4.57;;;3.80;;
11541;SDS011;5827;49.482;7.716;2023-04-24T09:51:44;6.03;;;3.70;;
11541;SDS011;5827;49.482;7.716;2023-04-24T09:53:46;4.97;;;3.73;;
11541;SDS011;5827;49.482;7.716;2023-04-24T09:55:48;4.93;;;4.10;;
11541;SDS011;5827;49.482;7.716;2023-04-24T09:57:50;4.57;;;4.17;;
11541;SDS011;5827;49.482;7.716;2023-04-24T09:59:53;5.90;;;4.37;;
11541;SDS011;5827;49.482;7.716;2023-04-24T10:01:54;6.63;;;4.40;;
11541;SDS011;5827;49.482;7.716;2023-04-24T10:03:59;5.43;;;4.17;;
11541;SDS011;5827;49.482;7.716;2023-04-24T10:06:01;6.93;;;4.33;;
11541;SDS011;5827;49.482;7.716;2023-04-24T10:08:08;8.07;;;4.53;;
11541;SDS011;5827;49.482;7.716;2023-04-24T10:10:11;6.57;;;4.80;;
11541;SDS011;5827;49.482;7.716;2023-04-24T10:12:14;5.97;;;4.80;;
11541;SDS011;5827;49.482;7.716;2023-04-24T10:14:17;7.67;;;4.70;;
11541;SDS011;5827;49.482;7.716;2023-04-24T10:16:21;4.73;;;4.23;;
11541;SDS011;5827;49.482;7.716;2023-04-24T10:18:23;6.43;;;4.40;;
11541;SDS011;5827;49.482;7.716;2023-04-24T10:20:28;5.00;;;4.40;;
11541;SDS011;5827;49.482;7.716;2023-04-24T10:22:31;5.80;;;4.57;;
11541;SDS011;5827;49.482;7.716;2023-04-24T10:24:33;7.03;;;4.83;;
11541;SDS011;5827;49.482;7.716;2023-04-24T10:26:37;6.67;;;4.80;;
11541;SDS011;5827;49.482;7.716;2023-04-24T10:28:39;5.70;;;4.60;;
11541;SDS011;5827;49.482;7.716;2023-04-24T10:30:43;7.60;;;4.80;;
11541;SDS011;5827;49.482;7.716;2023-04-24T10:32:44;6.93;;;5.13;;
11541;SDS011;5827;49.482;7.716;2023-04-24T10:34:46;5.90;;;4.70;;
11541;SDS011;5827;49.482;7.716;2023-04-24T10:36:50;7.40;;;5.30;;
11541;SDS011;5827;49.482;7.716;2023-04-24T10:38:54;7.80;;;4.80;;
11541;SDS011;5827;49.482;7.716;2023-04-24T10:40:58;8.23;;;5.30;;
11541;SDS011;5827;49.482;7.716;2023-04-24T10:43:09;7.47;;;4.37;;
11541;SDS011;5827;49.482;7.716;2023-04-24T10:45:16;5.67;;;4.70;;
11541;SDS011;5827;49.482;7.716;2023-04-24T10:47:18;5.40;;;4.57;;
11541;SDS011;5827;49.482;7.716;2023-04-24T10:49:27;6.97;;;5.23;;
11541;SDS011;5827;49.482;7.716;2023-04-24T10:51:42;7.10;;;5.03;;
11541;SDS011;5827;49.482;7.716;2023-04-24T10:53:47;5.00;;;4.50;;
11541;SDS011;5827;49.482;7.716;2023-04-24T10:55:51;6.03;;;4.63;;
11541;SDS011;5827;49.482;7.716;2023-04-24T10:58:01;5.17;;;4.67;;
11541;SDS011;5827;49.482;7.716;2023-04-24T11:00:12;5.97;;;4.63;;
11541;SDS011;5827;49.482;7.716;2023-04-24T11:02:16;5.83;;;4.33;;
11541;SDS011;5827;49.482;7.716;2023-04-24T11:04:22;4.83;;;4.43;;
11541;SDS011;5827;49.482;7.716;2023-04-24T11:06:30;7.93;;;4.50;;
11541;SDS011;5827;49.482;7.716;2023-04-24T11:08:38;5.67;;;4.50;;
11541;SDS011;5827;49.482;7.716;2023-04-24T11:10:45;5.33;;;4.47;;
11541;SDS011;5827;49.482;7.716;2023-04-24T11:12:47;5.03;;;4.53;;
11541;SDS011;5827;49.482;7.716;2023-04-24T11:15:01;4.80;;;4.30;;
11541;SDS011;5827;49.482;7.716;2023-04-24T11:17:02;6.20;;;4.27;;
11541;SDS011;5827;49.482;7.716;2023-04-24T11:19:05;7.87;;;4.83;;
11541;SDS011;5827;49.482;7.716;2023-04-24T11:21:10;6.03;;;4.33;;
11541;SDS011;5827;49.482;7.716;2023-04-24T11:23:12;6.20;;;4.30;;
11541;SDS011;5827;49.482;7.716;2023-04-24T11:25:15;6.00;;;4.43;;
11541;SDS011;5827;49.482;7.716;2023-04-24T11:27:18;5.77;;;4.20;;
11541;SDS011;5827;49.482;7.716;2023-04-24T11:29:20;4.60;;;4.13;;
11541;SDS011;5827;49.482;7.716;2023-04-24T11:33:39;6.17;;;3.97;;
11541;SDS011;5827;49.482;7.716;2023-04-24T11:35:41;4.73;;;4.27;;
11541;SDS011;5827;49.482;7.716;2023-04-24T11:37:43;5.07;;;4.57;;
11541;SDS011;5827;49.482;7.716;2023-04-24T11:39:49;4.47;;;4.07;;
11541;SDS011;5827;49.482;7.716;2023-04-24T11:42:01;4.67;;;3.77;;
11541;SDS011;5827;49.482;7.716;2023-04-24T11:44:05;5.67;;;4.33;;
11541;SDS011;5827;49.482;7.716;2023-04-24T11:46:08;7.97;;;4.70;;
11541;SDS011;5827;49.482;7.716;2023-04-24T11:48:09;6.37;;;4.03;;
11541;SDS011;5827;49.482;7.716;2023-04-24T11:50:11;5.57;;;4.40;;
11541;SDS011;5827;49.482;7.716;2023-04-24T11:52:15;6.27;;;4.30;;
11541;SDS011;5827;49.482;7.716;2023-04-24T11:54:17;7.47;;;3.90;;
11541;SDS011;5827;49.482;7.716;2023-04-24T11:56:18;6.53;;;4.17;;
11541;SDS011;5827;49.482;7.716;2023-04-24T11:58:20;4.83;;;4.23;;
11541;SDS011;5827;49.482;7.716;2023-04-24T12:00:24;4.50;;;3.90;;
11541;SDS011;5827;49.482;7.716;2023-04-24T12:02:28;6.90;;;4.23;;
11541;SDS011;5827;49.482;7.716;2023-04-24T12:04:37;4.87;;;3.70;;
11541;SDS011;5827;49.482;7.716;2023-04-24T12:09:00;6.67;;;3.80;;
11541;SDS011;5827;49.482;7.716;2023-04-24T12:11:02;5.67;;;4.37;;
11541;SDS011;5827;49.482;7.716;2023-04-24T12:13:08;4.93;;;4.20;;
11541;SDS011;5827;49.482;7.716;2023-04-24T12:15:11;5.50;;;4.13;;
11541;SDS011;5827;49.482;7.716;2023-04-24T12:17:13;5.80;;;4.73;;
11541;SDS011;5827;49.482;7.716;2023-04-24T12:19:17;8.17;;;5.03;;
11541;SDS011;5827;49.482;7.716;2023-04-24T12:21:21;7.23;;;4.30;;
11541;SDS011;5827;49.482;7.716;2023-04-24T12:23:35;4.50;;;4.10;;
11541;SDS011;5827;49.482;7.716;2023-04-24T12:25:38;5.77;;;4.70;;
11541;SDS011;5827;49.482;7.716;2023-04-24T12:27:41;5.77;;;4.50;;
11541;SDS011;5827;49.482;7.716;2023-04-24T12:29:50;6.33;;;4.20;;
11541;SDS011;5827;49.482;7.716;2023-04-24T12:31:52;4.87;;;4.33;;
11541;SDS011;5827;49.482;7.716;2023-04-24T12:33:56;5.17;;;4.57;;